Time;durP1;ratioP1;P1;durP2;ratioP2;P2;SDS_P1;SDS_P2;PMS_P1;PMS_P2;Temp;Humidity;BMP_temperature;BMP_pressure;BME280_temperature;BME280_humidity;BME280_pressure;Samples;Min_cycle;Max_cycle;Signal;HPM_P1;HPM_P2
2022/06/06 00:01:51;;;;;;;2.33;2.13;;;22.00;59.20;;;;;;4869028;29;20483;-92
2022/06/06 00:04:20;;;;;;;3.03;2.00;;;22.00;59.20;;;;;;4877540;29;20571;-90
2022/06/06 00:06:47;;;;;;;3.40;2.20;;;22.10;59.10;;;;;;4880565;29;20889;-90
2022/06/06 00:09:16;;;;;;;5.07;2.10;;;22.00;59.00;;;;;;4877295;29;20455;-90
2022/06/06 00:11:43;;;;;;;4.63;2.43;;;22.10;59.10;;;;;;4876646;29;20471;-91
2022/06/06 00:14:12;;;;;;;1.77;1.67;;;22.10;59.20;;;;;;4875130;29;20460;-90
2022/06/06 00:16:39;;;;;;;2.43;2.23;;;22.20;58.80;;;;;;4895031;29;20481;-91
2022/06/06 00:19:08;;;;;;;3.83;1.93;;;22.30;58.60;;;;;;4895384;29;20459;-91
2022/06/06 00:21:35;;;;;;;2.17;1.97;;;22.40;58.40;;;;;;4866582;29;20476;-90
2022/06/06 00:24:03;;;;;;;1.90;1.70;;;22.40;58.30;;;;;;4879883;29;20494;-90
2022/06/06 00:26:31;;;;;;;2.30;2.10;;;22.40;58.20;;;;;;4886856;29;20457;-90
2022/06/06 00:28:58;;;;;;;2.33;2.23;;;22.40;58.10;;;;;;4896215;29;20455;-90
2022/06/06 00:36:57;;;;;;;2.30;2.10;;;22.20;59.20;;;;;;4864896;29;20457;-91
2022/06/06 00:39:24;;;;;;;2.60;2.17;;;22.20;59.10;;;;;;4861310;29;20504;-90
2022/06/06 00:41:53;;;;;;;2.20;2.00;;;22.30;58.80;;;;;;4893590;29;20472;-92
2022/06/06 00:44:22;;;;;;;3.80;2.80;;;22.30;58.70;;;;;;4891971;29;20467;-91
2022/06/06 00:46:54;;;;;;;4.67;2.70;;;22.30;58.70;;;;;;4868298;29;20457;-91
2022/06/06 00:49:34;;;;;;;2.27;2.10;;;22.20;58.60;;;;;;4870033;29;20461;-91
2022/06/06 00:52:02;;;;;;;2.80;2.50;;;22.10;58.90;;;;;;4867438;29;20490;-91
2022/06/06 00:54:30;;;;;;;4.10;3.70;;;22.10;58.70;;;;;;4845634;29;20452;-91
2022/06/06 00:57:02;;;;;;;2.40;2.20;;;22.00;59.10;;;;;;4871761;29;20458;-92
2022/06/06 00:59:33;;;;;;;2.60;2.40;;;21.80;59.50;;;;;;4873845;29;20677;-92
2022/06/06 01:02:00;;;;;;;2.77;2.57;;;21.70;59.70;;;;;;4892805;29;20496;-90
2022/06/06 01:04:30;;;;;;;4.73;2.80;;;21.70;59.70;;;;;;4859613;29;20468;-90
2022/06/06 01:06:58;;;;;;;2.70;2.50;;;21.80;59.50;;;;;;4848988;29;20453;-91
2022/06/06 01:09:27;;;;;;;3.97;2.97;;;21.80;59.50;;;;;;4883224;29;20448;-91
2022/06/06 01:11:59;;;;;;;3.70;2.90;;;21.70;59.60;;;;;;4871141;29;20472;-90
2022/06/06 01:14:29;;;;;;;6.00;2.90;;;21.70;59.70;;;;;;4879912;29;20953;-91
2022/06/06 01:17:02;;;;;;;3.90;3.17;;;21.70;59.70;;;;;;4878956;29;20452;-91
2022/06/06 01:19:51;;;;;;;3.07;2.87;;;21.40;60.40;;;;;;4864248;29;20465;-90
2022/06/06 01:22:51;;;;;;;3.50;3.20;;;21.50;60.20;;;;;;4880841;29;20518;-90
2022/06/06 01:25:48;;;;;;;3.60;3.10;;;21.40;60.40;;;;;;4874738;29;20445;-90
2022/06/06 01:28:35;;;;;;;3.47;3.17;;;21.50;60.30;;;;;;4880573;29;20464;-91
2022/06/06 01:31:08;;;;;;;3.50;3.20;;;21.50;60.20;;;;;;4892364;29;20480;-90
2022/06/06 01:33:52;;;;;;;5.17;3.77;;;21.50;60.30;;;;;;4847524;29;20455;-90
2022/06/06 01:36:20;;;;;;;5.50;3.37;;;21.50;60.50;;;;;;4896739;29;20464;-91
2022/06/06 01:38:48;;;;;;;4.87;3.30;;;21.50;60.60;;;;;;4866525;29;20448;-91
2022/06/06 01:41:23;;;;;;;3.77;3.47;;;21.70;60.20;;;;;;4873861;29;20472;-91
2022/06/06 01:43:58;;;;;;;3.53;3.10;;;21.60;60.30;;;;;;4872352;29;20461;-91
2022/06/06 01:46:29;;;;;;;3.00;2.70;;;21.80;59.90;;;;;;4897999;29;20538;-91
2022/06/06 01:48:57;;;;;;;3.10;2.80;;;21.90;59.60;;;;;;4894514;29;21255;-90
2022/06/06 01:51:27;;;;;;;5.27;3.37;;;22.00;59.50;;;;;;4879178;29;20479;-91
2022/06/06 01:53:55;;;;;;;3.87;2.60;;;22.00;59.20;;;;;;4851305;29;20515;-88
2022/06/06 01:56:26;;;;;;;5.57;3.50;;;22.00;59.00;;;;;;4894720;29;20947;-91
2022/06/06 01:58:55;;;;;;;3.63;3.37;;;22.00;59.10;;;;;;4879333;29;20444;-91
2022/06/06 02:01:22;;;;;;;4.47;3.53;;;22.00;59.00;;;;;;4879995;29;21097;-91
2022/06/06 02:03:49;;;;;;;3.80;3.50;;;21.90;59.30;;;;;;4866494;29;20500;-90
2022/06/06 02:06:16;;;;;;;3.80;3.50;;;21.80;59.50;;;;;;4879415;29;20544;-91
2022/06/06 02:08:43;;;;;;;4.07;3.77;;;21.80;59.60;;;;;;4898202;29;20828;-90
2022/06/06 02:11:11;;;;;;;4.30;3.80;;;21.70;60.00;;;;;;4881706;29;21043;-92
2022/06/06 02:13:38;;;;;;;4.07;3.77;;;21.60;60.40;;;;;;4896729;29;20452;-91
2022/06/06 02:16:07;;;;;;;3.83;3.53;;;21.70;60.30;;;;;;4873320;29;20465;-91
2022/06/06 02:18:34;;;;;;;4.37;4.03;;;21.70;60.20;;;;;;4896145;29;20555;-91
2022/06/06 02:21:02;;;;;;;4.20;3.83;;;21.80;59.90;;;;;;4881126;29;20447;-92
2022/06/06 02:23:29;;;;;;;4.57;4.20;;;21.80;59.90;;;;;;4868446;29;20457;-92
2022/06/06 02:25:57;;;;;;;5.83;4.50;;;21.80;59.60;;;;;;4881831;29;21208;-91
2022/06/06 02:28:25;;;;;;;4.93;4.53;;;21.70;59.70;;;;;;4895310;29;20524;-92
2022/06/06 02:30:52;;;;;;;4.23;3.83;;;21.70;59.80;;;;;;4897621;29;20480;-91
2022/06/06 02:33:21;;;;;;;5.27;4.57;;;21.60;59.90;;;;;;4888641;29;21018;-92
2022/06/06 02:35:48;;;;;;;5.13;4.73;;;21.60;60.10;;;;;;4864677;29;20448;-91
2022/06/06 02:38:15;;;;;;;6.20;4.70;;;21.70;59.80;;;;;;4886207;29;20479;-90
2022/06/06 02:40:44;;;;;;;8.90;5.33;;;21.50;59.90;;;;;;4880069;29;20551;-91
2022/06/06 02:43:13;;;;;;;5.30;4.30;;;21.30;60.60;;;;;;4866316;29;20507;-88
2022/06/06 02:45:40;;;;;;;4.80;4.40;;;21.40;60.60;;;;;;4881598;29;20892;-90
2022/06/06 02:48:09;;;;;;;4.77;4.37;;;21.40;60.10;;;;;;4887754;29;20467;-91
2022/06/06 02:50:38;;;;;;;7.23;4.63;;;21.40;59.90;;;;;;4873295;29;20481;-93
2022/06/06 02:53:06;;;;;;;8.17;4.90;;;21.30;60.10;;;;;;4882078;29;20895;-90
2022/06/06 02:55:34;;;;;;;5.63;5.00;;;21.20;60.70;;;;;;4887879;29;20480;-90
2022/06/06 02:58:01;;;;;;;6.60;4.37;;;20.90;61.60;;;;;;4872321;29;20453;-92
2022/06/06 03:00:30;;;;;;;4.10;3.80;;;21.00;61.50;;;;;;4888690;29;20899;-91
2022/06/06 03:02:57;;;;;;;5.60;4.30;;;20.90;61.40;;;;;;4891877;29;20488;-91
2022/06/06 03:05:34;;;;;;;5.30;4.80;;;21.10;61.50;;;;;;4880381;29;20471;-91
2022/06/06 03:08:13;;;;;;;4.63;3.93;;;21.10;61.00;;;;;;4883215;29;20783;-92
2022/06/06 03:10:51;;;;;;;5.10;4.70;;;21.20;60.80;;;;;;4883875;29;21033;-92
2022/06/06 03:13:30;;;;;;;4.60;4.17;;;21.20;60.50;;;;;;4880788;29;20470;-91
2022/06/06 03:21:52;;;;;;;5.67;5.10;;;21.40;59.90;;;;;;4894736;29;20480;-90
2022/06/06 03:24:35;;;;;;;5.90;5.30;;;21.50;59.90;;;;;;4869514;29;20455;-91
2022/06/06 03:27:14;;;;;;;7.47;5.50;;;21.50;59.70;;;;;;4895352;29;20453;-91
2022/06/06 03:29:54;;;;;;;6.30;4.87;;;21.50;59.80;;;;;;4877451;29;20471;-91
2022/06/06 03:32:29;;;;;;;6.03;4.80;;;21.50;59.80;;;;;;4878080;29;20499;-90
2022/06/06 03:35:04;;;;;;;5.90;4.93;;;21.60;59.50;;;;;;4886697;29;20448;-91
2022/06/06 03:37:37;;;;;;;6.80;5.10;;;21.60;59.60;;;;;;4871298;29;21033;-92
2022/06/06 03:40:14;;;;;;;6.80;5.60;;;21.60;59.30;;;;;;4878687;29;20452;-90
2022/06/06 03:42:52;;;;;;;7.80;4.93;;;21.70;59.00;;;;;;4871864;29;20483;-90
2022/06/06 03:45:26;;;;;;;6.03;4.63;;;21.80;58.90;;;;;;4885047;29;20567;-91
2022/06/06 03:48:07;;;;;;;11.30;5.03;;;21.80;58.60;;;;;;4871694;29;20472;-93
2022/06/06 03:50:47;;;;;;;6.73;4.30;;;21.80;58.50;;;;;;4847706;29;20481;-92
2022/06/06 03:53:23;;;;;;;4.43;4.10;;;21.80;58.40;;;;;;4879394;29;20452;-90
2022/06/06 03:56:06;;;;;;;5.63;5.03;;;21.80;58.20;;;;;;4870740;29;20452;-89
2022/06/06 03:58:34;;;;;;;5.00;4.50;;;21.80;58.40;;;;;;4865734;29;20455;-92
2022/06/06 04:01:05;;;;;;;4.23;3.93;;;21.80;58.40;;;;;;4871972;29;20459;-91
2022/06/06 04:03:34;;;;;;;5.53;4.87;;;21.50;59.00;;;;;;4869818;29;20468;-91
2022/06/06 04:06:02;;;;;;;4.43;4.13;;;21.60;59.10;;;;;;4882415;29;20521;-92
2022/06/06 04:08:32;;;;;;;4.50;4.10;;;21.60;58.90;;;;;;4844934;29;20790;-89
2022/06/06 04:11:22;;;;;;;6.17;4.20;;;21.60;58.80;;;;;;4867541;29;20575;-88
2022/06/06 04:14:04;;;;;;;5.10;4.40;;;21.70;58.70;;;;;;4882184;29;20484;-92
2022/06/06 04:16:42;;;;;;;7.60;4.47;;;21.60;58.70;;;;;;4897276;29;20459;-92
2022/06/06 04:19:25;;;;;;;8.53;5.17;;;21.60;58.90;;;;;;4884590;29;20552;-92
2022/06/06 04:22:04;;;;;;;5.17;4.67;;;21.60;58.80;;;;;;4867738;29;20480;-92
2022/06/06 04:25:04;;;;;;;5.13;4.67;;;21.60;58.90;;;;;;4870418;29;20460;-91
2022/06/06 04:27:40;;;;;;;5.60;4.43;;;21.60;58.50;;;;;;4848772;29;20468;-91
2022/06/06 04:30:12;;;;;;;5.63;5.00;;;21.70;58.60;;;;;;4862547;29;20462;-91
2022/06/06 04:32:52;;;;;;;4.80;4.40;;;21.70;58.50;;;;;;4876835;29;20480;-91
2022/06/06 04:35:28;;;;;;;8.17;5.10;;;21.60;58.10;;;;;;4890977;29;20530;-90
2022/06/06 04:38:05;;;;;;;5.47;4.97;;;21.60;58.00;;;;;;4886430;29;21104;-90
2022/06/06 04:40:40;;;;;;;5.67;4.80;;;21.60;58.50;;;;;;4869447;29;20444;-91
2022/06/06 04:43:15;;;;;;;9.83;5.20;;;21.50;58.90;;;;;;4862678;29;20468;-91
2022/06/06 04:45:47;;;;;;;5.00;4.60;;;21.50;59.10;;;;;;4845927;29;20456;-91
2022/06/06 04:48:17;;;;;;;5.67;5.17;;;21.50;59.10;;;;;;4866406;29;20471;-91
2022/06/06 04:50:45;;;;;;;6.20;5.10;;;21.60;59.30;;;;;;4860770;29;21176;-90
2022/06/06 04:53:17;;;;;;;7.37;5.67;;;21.60;59.30;;;;;;4877539;29;20467;-90
2022/06/06 04:55:45;;;;;;;7.70;5.70;;;21.70;59.30;;;;;;4893512;29;20448;-91
2022/06/06 04:58:16;;;;;;;5.33;4.83;;;21.60;59.60;;;;;;4868807;29;20463;-92
2022/06/06 05:00:44;;;;;;;5.27;4.77;;;21.50;60.50;;;;;;4893479;29;20457;-91
2022/06/06 05:03:13;;;;;;;5.50;5.00;;;21.50;60.40;;;;;;4879857;29;20480;-87
2022/06/06 05:05:50;;;;;;;6.17;4.90;;;21.40;60.40;;;;;;4869072;29;20952;-90
2022/06/06 05:08:34;;;;;;;7.20;5.80;;;21.50;60.30;;;;;;4893239;29;20448;-91
2022/06/06 05:11:14;;;;;;;6.60;5.90;;;21.40;60.30;;;;;;4881928;29;20476;-91
2022/06/06 05:13:59;;;;;;;8.00;6.63;;;21.40;60.50;;;;;;4883758;29;20608;-91
2022/06/06 05:16:42;;;;;;;6.10;5.60;;;21.40;60.60;;;;;;4866918;29;20452;-91
2022/06/06 05:19:22;;;;;;;5.70;5.10;;;21.60;61.00;;;;;;4865677;29;20467;-91
2022/06/06 05:22:10;;;;;;;5.93;5.33;;;21.40;60.50;;;;;;4876348;29;20471;-90
2022/06/06 05:24:56;;;;;;;6.00;5.40;;;21.40;61.40;;;;;;4897590;29;20559;-90
2022/06/06 05:27:47;;;;;;;5.57;4.90;;;21.50;61.30;;;;;;4867900;29;20948;-91
2022/06/06 05:30:19;;;;;;;6.23;5.63;;;21.60;61.40;;;;;;4858674;29;21070;-92
2022/06/06 05:32:58;;;;;;;6.70;6.10;;;21.60;60.90;;;;;;4869304;29;20897;-90
2022/06/06 05:35:49;;;;;;;9.07;5.47;;;21.80;61.10;;;;;;4896614;29;20459;-91
2022/06/06 05:38:28;;;;;;;5.97;5.37;;;21.90;60.70;;;;;;4855748;29;20452;-91
2022/06/06 05:41:03;;;;;;;6.40;5.30;;;22.10;60.20;;;;;;4882254;29;20463;-92
2022/06/06 05:43:41;;;;;;;9.27;6.17;;;22.10;60.00;;;;;;4871771;29;20466;-90
2022/06/06 05:46:24;;;;;;;7.53;5.83;;;22.10;60.30;;;;;;4880239;29;20451;-90
2022/06/06 05:49:14;;;;;;;11.60;6.40;;;22.40;60.60;;;;;;4896468;29;20469;-91
2022/06/06 05:51:50;;;;;;;6.67;5.80;;;22.30;59.60;;;;;;4895998;29;20592;-91
2022/06/06 05:54:44;;;;;;;6.90;6.07;;;22.20;59.20;;;;;;4877397;29;20460;-91
2022/06/06 05:57:47;;;;;;;6.50;5.90;;;22.40;59.60;;;;;;4885214;29;20455;-87
2022/06/06 06:00:34;;;;;;;9.87;6.27;;;22.60;59.60;;;;;;4892841;29;20455;-90
2022/06/06 06:03:27;;;;;;;7.47;6.20;;;22.90;59.30;;;;;;4883857;29;21210;-90
2022/06/06 06:06:03;;;;;;;6.90;5.60;;;23.00;59.00;;;;;;4884726;29;20462;-90
2022/06/06 06:08:45;;;;;;;5.93;5.33;;;22.90;58.40;;;;;;4879311;29;21235;-89
2022/06/06 06:11:22;;;;;;;6.47;5.60;;;23.10;58.80;;;;;;4852401;29;20556;-90
2022/06/06 06:14:02;;;;;;;5.97;5.17;;;23.20;58.70;;;;;;4893862;29;20492;-89
2022/06/06 06:16:33;;;;;;;6.17;5.57;;;23.40;58.60;;;;;;4877349;29;20932;-89
2022/06/06 06:19:08;;;;;;;6.03;5.33;;;23.60;57.00;;;;;;4891944;29;21144;-89
2022/06/06 06:21:41;;;;;;;6.10;5.50;;;23.50;57.60;;;;;;4870151;29;20463;-89
2022/06/06 06:24:10;;;;;;;7.73;6.23;;;23.50;58.60;;;;;;4894564;29;20503;-89
2022/06/06 06:26:38;;;;;;;7.37;5.60;;;23.70;58.30;;;;;;4884223;29;20456;-89
2022/06/06 06:29:07;;;;;;;5.53;5.03;;;24.00;57.50;;;;;;4855011;29;20453;-90
2022/06/06 06:31:48;;;;;;;5.30;4.80;;;24.20;56.90;;;;;;4856587;29;20480;-89
2022/06/06 06:34:30;;;;;;;6.10;5.50;;;24.30;56.70;;;;;;4877394;29;20805;-90
2022/06/06 06:37:14;;;;;;;8.10;5.60;;;24.30;55.50;;;;;;4874219;29;20465;-88
2022/06/06 06:39:59;;;;;;;6.00;5.40;;;24.10;57.40;;;;;;4873741;29;20960;-87
2022/06/06 06:42:39;;;;;;;6.07;4.90;;;24.10;56.50;;;;;;4877547;29;20947;-89
2022/06/06 06:45:12;;;;;;;5.93;4.90;;;24.10;55.90;;;;;;4890853;29;20530;-89
2022/06/06 06:47:41;;;;;;;6.20;5.60;;;24.30;56.50;;;;;;4847343;29;21299;-90
2022/06/06 06:50:15;;;;;;;8.40;6.17;;;24.30;55.80;;;;;;4852965;29;20449;-89
2022/06/06 06:53:02;;;;;;;8.63;5.37;;;24.10;56.50;;;;;;4869438;29;20552;-89
2022/06/06 06:55:37;;;;;;;6.73;5.83;;;24.10;56.50;;;;;;4887351;29;20456;-89
2022/06/06 06:58:26;;;;;;;6.10;5.50;;;24.20;55.50;;;;;;4889481;29;20459;-89
2022/06/06 07:00:56;;;;;;;5.70;5.13;;;24.30;55.70;;;;;;4844164;29;20516;-88
2022/06/06 07:09:24;;;;;;;6.13;5.53;;;24.20;55.80;;;;;;4868428;29;20460;-89
2022/06/06 07:12:06;;;;;;;6.40;5.30;;;24.40;56.10;;;;;;4866667;29;20579;-89
2022/06/06 07:14:47;;;;;;;7.03;5.30;;;24.50;55.80;;;;;;4891754;29;20459;-87
2022/06/06 07:17:16;;;;;;;6.60;5.60;;;24.40;56.30;;;;;;4875021;29;20460;-90
2022/06/06 07:19:48;;;;;;;6.47;5.13;;;24.40;56.10;;;;;;4889405;29;20621;-88
2022/06/06 07:22:17;;;;;;;5.27;4.77;;;24.10;56.60;;;;;;4883737;29;20498;-89
2022/06/06 07:24:47;;;;;;;7.03;6.00;;;24.00;57.00;;;;;;4860125;29;20468;-89
2022/06/06 07:27:14;;;;;;;5.53;5.03;;;24.20;56.60;;;;;;4843725;29;20465;-89
2022/06/06 07:29:41;;;;;;;6.53;5.83;;;24.30;56.20;;;;;;4888297;29;20452;-88
2022/06/06 07:32:29;;;;;;;8.73;5.17;;;24.10;55.70;;;;;;4890583;29;21212;-88
2022/06/06 07:35:02;;;;;;;6.17;5.57;;;24.10;56.40;;;;;;4868137;29;20452;-88
2022/06/06 07:37:50;;;;;;;6.47;5.87;;;24.20;56.80;;;;;;4862642;29;20463;-88
2022/06/06 07:40:28;;;;;;;6.17;5.43;;;24.30;56.80;;;;;;4849858;29;20478;-89
2022/06/06 07:43:24;;;;;;;5.60;5.00;;;24.30;56.30;;;;;;4855820;29;20932;-88
2022/06/06 07:45:55;;;;;;;6.20;5.60;;;24.40;56.90;;;;;;4863842;29;20475;-88
2022/06/06 07:48:37;;;;;;;6.10;5.50;;;23.80;56.30;;;;;;4874434;29;20993;-89
2022/06/06 07:51:12;;;;;;;5.80;5.30;;;23.40;57.70;;;;;;4885007;29;20454;-89
2022/06/06 07:53:52;;;;;;;5.40;5.00;;;23.60;57.50;;;;;;4890033;29;20467;-88
2022/06/06 07:56:28;;;;;;;5.73;5.17;;;23.70;57.80;;;;;;4888536;29;20463;-88
2022/06/06 07:59:03;;;;;;;5.40;5.00;;;23.70;57.30;;;;;;4891053;29;20466;-88
2022/06/06 08:01:41;;;;;;;9.50;5.50;;;23.90;57.40;;;;;;4873682;29;21011;-88
2022/06/06 08:04:19;;;;;;;5.60;5.10;;;24.10;57.10;;;;;;4851452;29;20459;-89
2022/06/06 08:06:55;;;;;;;7.87;6.17;;;24.40;55.70;;;;;;4872488;29;21188;-88
2022/06/06 08:09:49;;;;;;;7.40;5.00;;;24.30;56.40;;;;;;4855020;29;20458;-88
2022/06/06 08:12:37;;;;;;;5.57;5.03;;;24.60;56.50;;;;;;4851144;29;20487;-88
2022/06/06 08:15:13;;;;;;;6.93;6.23;;;24.80;56.00;;;;;;4868303;29;20503;-88
2022/06/06 08:18:07;;;;;;;6.03;5.43;;;25.00;55.70;;;;;;4894328;29;21131;-88
2022/06/06 08:20:41;;;;;;;6.93;5.43;;;25.10;55.40;;;;;;4891766;29;20449;-90
2022/06/06 08:23:09;;;;;;;10.47;6.57;;;25.30;55.80;;;;;;4849688;29;20461;-88
2022/06/06 08:25:40;;;;;;;5.70;5.10;;;25.60;55.40;;;;;;4855023;29;20459;-88
2022/06/06 08:28:09;;;;;;;9.30;6.03;;;25.70;55.40;;;;;;4878000;29;20520;-88
2022/06/06 08:30:36;;;;;;;6.67;5.87;;;25.50;53.80;;;;;;4876466;29;20463;-89
2022/06/06 08:33:03;;;;;;;6.63;5.93;;;25.50;54.10;;;;;;4866659;29;21330;-87
2022/06/06 08:35:40;;;;;;;5.93;5.30;;;25.60;54.40;;;;;;4856361;29;20476;-87
2022/06/06 08:38:39;;;;;;;5.40;4.90;;;25.80;54.40;;;;;;4894082;29;20519;-88
2022/06/06 08:41:35;;;;;;;5.40;4.27;;;25.70;53.20;;;;;;4877082;29;20537;-87
2022/06/06 08:44:07;;;;;;;5.60;4.27;;;25.80;52.90;;;;;;4889275;29;20467;-88
2022/06/06 08:46:51;;;;;;;4.47;4.13;;;26.00;51.10;;;;;;4863549;29;20444;-86
2022/06/06 08:52:45;;;;;;;5.50;3.77;;;26.10;52.70;;;;;;4814237;29;20489;-87
2022/06/06 08:55:42;;;;;;;8.87;3.77;;;25.90;49.50;;;;;;4871443;29;20963;-88
2022/06/06 08:58:30;;;;;;;4.23;3.90;;;25.70;50.60;;;;;;4874416;29;20460;-88
2022/06/06 09:01:05;;;;;;;3.90;3.60;;;25.80;50.50;;;;;;4865880;29;20500;-89
2022/06/06 09:03:54;;;;;;;3.53;3.23;;;25.70;49.60;;;;;;4872878;29;21091;-87
2022/06/06 09:06:53;;;;;;;3.60;3.30;;;25.80;49.40;;;;;;4890039;29;20460;-90
2022/06/06 09:10:12;;;;;;;3.43;3.13;;;25.70;48.50;;;;;;4862947;29;20460;-91
2022/06/06 09:13:08;;;;;;;3.60;3.30;;;25.70;49.10;;;;;;4878398;29;21318;-89
2022/06/06 09:16:10;;;;;;;5.20;3.37;;;25.50;49.30;;;;;;4892096;29;20868;-88
2022/06/06 09:19:04;;;;;;;3.83;3.53;;;25.60;50.20;;;;;;4843528;29;20475;-88
2022/06/06 09:22:09;;;;;;;5.73;3.73;;;25.80;49.20;;;;;;4862076;29;20484;-87
2022/06/06 09:25:19;;;;;;;9.97;3.53;;;25.90;48.60;;;;;;4854548;29;20485;-88
2022/06/06 09:28:27;;;;;;;3.60;3.37;;;26.20;48.40;;;;;;4822860;29;20493;-88
2022/06/06 09:31:35;;;;;;;3.50;3.27;;;26.30;47.00;;;;;;4875994;29;20460;-88
2022/06/06 09:34:26;;;;;;;3.63;3.33;;;26.30;47.90;;;;;;4860255;29;20867;-89
2022/06/06 09:37:06;;;;;;;3.77;3.47;;;26.50;47.10;;;;;;4877450;29;20456;-88
2022/06/06 09:39:39;;;;;;;3.53;3.20;;;26.50;46.80;;;;;;4874566;29;20559;-88
2022/06/06 09:42:35;;;;;;;3.93;3.10;;;26.60;45.60;;;;;;4891296;29;21213;-88
2022/06/06 09:45:30;;;;;;;2.77;2.53;;;26.60;46.20;;;;;;4857642;29;21256;-89
2022/06/06 09:48:33;;;;;;;3.00;2.80;;;26.80;44.70;;;;;;4889973;29;20496;-89
2022/06/06 09:51:34;;;;;;;4.20;2.53;;;27.00;45.70;;;;;;4873116;29;21035;-87
2022/06/06 10:01:45;;;;;;;3.23;3.03;;;27.60;42.60;;;;;;4877103;29;20483;-88
2022/06/06 10:04:44;;;;;;;2.90;2.70;;;27.90;43.50;;;;;;4853617;29;20467;-85
2022/06/06 10:07:46;;;;;;;3.00;2.70;;;28.30;43.30;;;;;;4850751;29;20456;-88
2022/06/06 10:10:54;;;;;;;3.33;3.03;;;28.70;41.80;;;;;;4872761;29;20444;-88
2022/06/06 10:13:52;;;;;;;3.60;3.30;;;28.60;41.30;;;;;;4861831;29;20483;-89
2022/06/06 10:16:38;;;;;;;3.30;2.80;;;28.40;41.40;;;;;;4876007;29;20911;-88
2022/06/06 10:19:30;;;;;;;3.07;2.87;;;28.70;40.80;;;;;;4879161;29;20468;-90
2022/06/06 10:22:39;;;;;;;2.90;2.60;;;28.80;40.80;;;;;;4896711;29;21357;-86
2022/06/06 10:25:31;;;;;;;3.60;3.17;;;28.20;41.90;;;;;;4875153;29;20452;-87
2022/06/06 10:28:19;;;;;;;3.33;2.90;;;27.80;41.40;;;;;;4883628;29;20462;-86
2022/06/06 10:31:01;;;;;;;3.10;2.50;;;27.90;42.40;;;;;;4866021;29;20456;-87
2022/06/06 10:34:15;;;;;;;2.60;2.43;;;28.20;43.20;;;;;;4892439;29;20484;-87
2022/06/06 10:37:16;;;;;;;2.70;2.20;;;28.10;41.70;;;;;;4865896;29;20463;-87
2022/06/06 10:40:11;;;;;;;2.70;2.50;;;28.30;41.20;;;;;;4881727;29;20464;-87
2022/06/06 10:43:09;;;;;;;5.50;3.03;;;28.30;40.10;;;;;;4895792;29;20498;-88
2022/06/06 10:45:38;;;;;;;2.60;2.40;;;28.30;40.00;;;;;;4880727;29;20468;-87
2022/06/06 10:48:25;;;;;;;2.83;2.63;;;28.20;40.20;;;;;;4880661;29;20562;-86
2022/06/06 10:51:40;;;;;;;2.87;2.67;;;28.10;40.70;;;;;;4892033;29;20451;-87
2022/06/06 10:54:43;;;;;;;2.83;2.37;;;28.30;39.70;;;;;;4840981;29;20484;-87
2022/06/06 10:57:46;;;;;;;2.70;2.50;;;28.20;39.80;;;;;;4892024;29;20465;-87
2022/06/06 11:00:26;;;;;;;2.97;2.77;;;28.20;40.10;;;;;;4891397;29;20536;-87
2022/06/06 11:03:26;;;;;;;3.23;2.60;;;28.20;41.00;;;;;;4879874;29;20479;-87
2022/06/06 11:06:25;;;;;;;3.00;2.80;;;28.30;40.40;;;;;;4861565;29;20961;-85
2022/06/06 11:09:10;;;;;;;3.00;2.80;;;27.70;40.50;;;;;;4893519;29;20463;-86
2022/06/06 11:12:21;;;;;;;3.03;2.83;;;27.60;40.60;;;;;;4874024;29;21013;-87
2022/06/06 11:14:51;;;;;;;4.10;2.40;;;27.50;41.60;;;;;;4893780;29;20462;-86
2022/06/06 11:17:41;;;;;;;2.83;2.53;;;27.80;40.30;;;;;;4876652;29;20535;-87
2022/06/06 11:20:56;;;;;;;4.50;2.73;;;27.90;42.40;;;;;;4892638;29;20456;-87
2022/06/06 11:23:30;;;;;;;2.87;2.67;;;27.60;43.90;;;;;;4885233;29;21081;-87
2022/06/06 11:26:16;;;;;;;3.90;2.90;;;27.50;44.20;;;;;;4879867;29;20596;-86
2022/06/06 11:29:01;;;;;;;2.93;2.70;;;27.40;44.00;;;;;;4878843;29;20452;-87
2022/06/06 11:31:54;;;;;;;2.97;2.77;;;27.10;44.30;;;;;;4861024;29;20476;-87
2022/06/06 11:34:57;;;;;;;3.27;2.97;;;26.80;45.10;;;;;;4890558;29;20609;-88
2022/06/06 11:38:06;;;;;;;3.43;3.13;;;26.30;45.80;;;;;;4872839;29;20544;-87
2022/06/06 11:41:08;;;;;;;2.90;2.70;;;26.40;46.80;;;;;;4875811;29;21216;-86
2022/06/06 11:44:08;;;;;;;3.43;2.60;;;26.50;47.30;;;;;;4890190;29;20459;-86
2022/06/06 11:47:07;;;;;;;3.20;3.00;;;27.00;46.10;;;;;;4844247;29;20821;-87
2022/06/06 11:50:18;;;;;;;3.37;3.07;;;27.60;44.50;;;;;;4879175;29;20460;-87
2022/06/06 11:53:24;;;;;;;3.57;3.27;;;27.70;44.20;;;;;;4893758;29;21296;-87
2022/06/06 11:56:03;;;;;;;5.60;3.30;;;28.00;44.50;;;;;;4882763;29;20451;-87
2022/06/06 11:59:09;;;;;;;3.50;3.20;;;28.20;44.90;;;;;;4860959;29;20539;-85
2022/06/06 12:02:19;;;;;;;3.73;3.43;;;28.20;43.30;;;;;;4891696;29;20510;-87
2022/06/06 12:05:27;;;;;;;3.37;3.17;;;28.10;43.40;;;;;;4875637;29;21315;-87
2022/06/06 12:08:23;;;;;;;3.17;2.97;;;27.70;43.00;;;;;;4892930;29;20833;-87
2022/06/06 12:11:10;;;;;;;3.03;2.80;;;27.40;43.50;;;;;;4857531;29;20467;-87
2022/06/06 12:13:58;;;;;;;4.20;3.90;;;27.50;45.00;;;;;;4892484;29;20486;-86
2022/06/06 12:16:30;;;;;;;9.60;3.30;;;27.40;45.30;;;;;;4874572;29;20472;-88
2022/06/06 12:19:54;;;;;;;3.20;3.00;;;27.50;45.50;;;;;;4876299;29;20564;-86
2022/06/06 12:22:53;;;;;;;3.40;2.90;;;27.10;44.50;;;;;;4819626;29;20483;-88
2022/06/06 12:25:53;;;;;;;6.07;3.13;;;26.80;45.80;;;;;;4879487;29;21010;-87
2022/06/06 12:28:43;;;;;;;3.10;2.90;;;26.70;45.80;;;;;;4860777;29;20448;-87
2022/06/06 12:31:31;;;;;;;3.07;2.83;;;26.60;45.60;;;;;;4886193;29;20467;-87
2022/06/06 12:34:04;;;;;;;7.30;3.03;;;26.80;46.20;;;;;;4887135;29;20480;-86
2022/06/06 12:36:40;;;;;;;3.73;3.20;;;26.70;45.10;;;;;;4888297;29;20463;-88
2022/06/06 12:39:16;;;;;;;3.10;2.90;;;26.40;45.80;;;;;;4887501;29;20584;-88
2022/06/06 12:41:59;;;;;;;3.27;2.97;;;26.20;46.10;;;;;;4888647;29;20472;-87
2022/06/06 12:44:44;;;;;;;2.93;2.73;;;26.00;46.60;;;;;;4869668;29;20928;-87
2022/06/06 12:47:30;;;;;;;4.03;2.63;;;26.00;46.30;;;;;;4872451;29;20486;-87
2022/06/06 12:50:13;;;;;;;4.10;3.30;;;25.80;46.60;;;;;;4871415;29;20524;-87
2022/06/06 12:53:08;;;;;;;3.17;2.83;;;25.70;47.50;;;;;;4877842;29;20562;-87
2022/06/06 12:56:07;;;;;;;3.20;3.00;;;25.70;48.10;;;;;;4852663;29;20451;-87
2022/06/06 12:58:44;;;;;;;5.60;3.57;;;25.80;48.00;;;;;;4874391;29;21876;-88
2022/06/06 13:01:39;;;;;;;6.10;3.70;;;25.50;48.40;;;;;;4870748;29;20476;-87
2022/06/06 13:04:33;;;;;;;7.53;3.53;;;25.20;49.40;;;;;;4887317;29;21039;-87
2022/06/06 13:07:09;;;;;;;3.53;3.23;;;25.00;50.50;;;;;;4854984;29;20462;-88
2022/06/06 13:09:56;;;;;;;5.40;3.30;;;25.20;50.80;;;;;;4869991;29;20474;-87
2022/06/06 13:12:40;;;;;;;9.00;3.30;;;25.30;50.70;;;;;;4868753;29;20491;-88
2022/06/06 13:15:19;;;;;;;3.70;3.40;;;25.60;51.30;;;;;;4847347;29;20514;-87
2022/06/06 13:18:03;;;;;;;3.13;2.90;;;25.80;50.30;;;;;;4875552;29;20464;-88
2022/06/06 13:20:40;;;;;;;3.63;3.10;;;26.00;50.00;;;;;;4873643;29;21536;-87
2022/06/06 13:23:34;;;;;;;3.30;3.03;;;26.00;49.70;;;;;;4879257;29;20580;-88
2022/06/06 13:26:19;;;;;;;3.77;3.47;;;25.80;49.20;;;;;;4882080;29;21058;-86
2022/06/06 13:28:50;;;;;;;4.63;3.57;;;25.70;49.90;;;;;;4862702;29;20539;-88
2022/06/06 13:31:37;;;;;;;6.27;3.13;;;25.90;49.80;;;;;;4891079;29;20504;-87
2022/06/06 13:34:20;;;;;;;3.37;3.07;;;26.10;49.60;;;;;;4869650;29;21249;-86
2022/06/06 13:37:03;;;;;;;3.80;2.57;;;26.30;49.10;;;;;;4863025;29;20867;-88
2022/06/06 13:39:51;;;;;;;2.77;2.57;;;26.40;48.70;;;;;;4878792;29;20523;-88
2022/06/06 13:42:35;;;;;;;3.43;3.23;;;26.40;47.90;;;;;;4878191;29;20486;-87
2022/06/06 13:45:18;;;;;;;3.33;3.10;;;26.50;48.10;;;;;;4894350;29;21108;-88
2022/06/06 13:48:10;;;;;;;4.30;3.50;;;26.70;46.90;;;;;;4895005;29;20478;-89
2022/06/06 13:50:45;;;;;;;3.23;3.03;;;27.20;46.10;;;;;;4895846;29;20448;-89
2022/06/06 13:53:38;;;;;;;3.07;2.80;;;27.30;45.30;;;;;;4863708;29;20475;-86
2022/06/06 13:56:18;;;;;;;4.67;3.00;;;27.50;44.30;;;;;;4879084;29;20448;-88
2022/06/06 13:58:58;;;;;;;3.00;2.80;;;27.70;44.20;;;;;;4876987;29;20452;-87
2022/06/06 14:01:43;;;;;;;2.60;2.40;;;27.70;43.90;;;;;;4877837;29;20478;-88
2022/06/06 14:04:26;;;;;;;2.73;2.53;;;27.60;43.40;;;;;;4881961;29;20447;-88
2022/06/06 14:07:13;;;;;;;2.53;2.33;;;27.60;44.30;;;;;;4878662;29;20684;-87
2022/06/06 14:09:42;;;;;;;2.90;2.37;;;27.80;44.60;;;;;;4894262;29;20448;-87
2022/06/06 14:12:32;;;;;;;3.17;2.97;;;28.00;43.50;;;;;;4893906;29;21188;-88
2022/06/06 14:15:05;;;;;;;3.20;2.90;;;27.90;43.30;;;;;;4875836;29;20565;-86
2022/06/06 14:17:36;;;;;;;2.77;2.57;;;28.00;43.20;;;;;;4876451;29;20457;-89
2022/06/06 14:20:17;;;;;;;3.07;2.70;;;28.00;43.20;;;;;;4865320;29;20539;-88
2022/06/06 14:22:45;;;;;;;2.50;2.30;;;28.10;42.60;;;;;;4879666;29;20563;-87
2022/06/06 14:25:13;;;;;;;4.23;3.93;;;28.10;42.50;;;;;;4890867;29;20444;-88